Time;durP1;ratioP1;P1;durP2;ratioP2;P2;SDS_P1;SDS_P2;PMS_P1;PMS_P2;Temp;Humidity;BMP_temperature;BMP_pressure;BME280_temperature;BME280_humidity;BME280_pressure;Samples;Min_cycle;Max_cycle;Signal;HPM_P1;HPM_P2
2023/10/23 00:01:33;;;;;;;6.93;2.67;;;;;;;2.79;100.00;95452.16;7400390;19;20756;-89
2023/10/23 00:08:06;;;;;;;18.37;3.70;;;;;;;3.91;100.00;95601.69;7394893;19;20384;-90
2023/10/23 00:10:44;;;;;;;3.77;3.37;;;;;;;3.62;100.00;95562.94;7397539;19;20399;-90
2023/10/23 00:13:14;;;;;;;4.43;3.37;;;;;;;4.32;100.00;95692.94;7396180;19;20766;-90
2023/10/23 00:16:53;;;;;;;6.07;2.70;;;;;;;4.96;100.00;95794.69;7397948;19;20392;-90
2023/10/23 00:19:19;;;;;;;6.10;3.30;;;;;;;3.29;100.00;95523.28;7393748;19;20524;-90
2023/10/23 00:22:09;;;;;;;5.53;3.60;;;;;;;2.71;100.00;95427.56;7396068;19;20798;-90
2023/10/23 00:25:04;;;;;;;9.27;3.47;;;;;;;3.07;100.00;95492.75;7395901;19;20417;-90
2023/10/23 00:28:10;;;;;;;7.03;4.13;;;;;;;5.05;100.00;95796.25;7395135;19;20396;-90
2023/10/23 00:30:50;;;;;;;5.13;3.33;;;;;;;3.85;100.00;95590.56;7395705;19;20403;-91
2023/10/23 00:34:02;;;;;;;3.97;3.07;;;;;;;3.88;100.00;95617.97;7395695;19;20381;-90
2023/10/23 00:40:05;;;;;;;3.77;2.63;;;;;;;4.07;100.00;95657.75;7392355;19;20437;-90
2023/10/23 00:42:32;;;;;;;7.43;4.10;;;;;;;4.48;100.00;95719.50;7394622;19;20952;-90
2023/10/23 00:45:00;;;;;;;4.43;3.57;;;;;;;2.75;100.00;95444.16;7397297;19;20392;-90
2023/10/23 00:47:27;;;;;;;18.27;5.13;;;;;;;3.66;100.00;95570.97;7398219;19;20416;-90
2023/10/23 00:49:57;;;;;;;6.07;3.87;;;;;;;4.80;100.00;95754.25;7397400;19;20508;-90
2023/10/23 00:52:25;;;;;;;6.10;3.60;;;;;;;2.77;100.00;95459.53;7422812;19;20381;-90
2023/10/23 00:54:53;;;;;;;5.40;4.00;;;;;;;3.25;100.00;95528.31;7427653;19;20381;-91
2023/10/23 00:57:34;;;;;;;5.07;3.20;;;;;;;3.63;100.00;95593.25;7428693;19;20388;-91
2023/10/23 01:00:14;;;;;;;3.47;3.17;;;;;;;4.18;100.00;95689.66;7420122;19;20441;-90
2023/10/23 01:02:46;;;;;;;4.20;2.87;;;;;;;3.58;100.00;95600.41;7394240;19;20388;-90
2023/10/23 01:05:31;;;;;;;3.07;2.77;;;;;;;2.59;100.00;95448.19;7397238;19;20381;-90
2023/10/23 01:08:08;;;;;;;6.87;3.40;;;;;;;3.82;100.00;95640.84;7398069;19;20388;-90
2023/10/23 01:10:55;;;;;;;7.43;3.20;;;;;;;3.89;100.00;95655.34;7410736;19;20388;-90
2023/10/23 01:13:27;;;;;;;4.20;3.50;;;;;;;2.55;100.00;95470.75;7403471;19;20655;-90
2023/10/23 01:15:54;;;;;;;18.23;5.67;;;;;;;2.53;100.00;95485.91;7413821;19;20381;-91
2023/10/23 01:18:24;;;;;;;3.87;3.53;;;;;;;2.88;100.00;95549.56;7403894;19;20405;-91
2023/10/23 01:20:54;;;;;;;4.03;3.03;;;;;;;3.85;100.00;95723.91;7402459;19;20393;-91
2023/10/23 01:23:28;;;;;;;5.23;3.20;;;;;;;2.21;100.00;95460.78;7403616;19;20392;-91
2023/10/23 01:25:55;;;;;;;5.67;2.60;;;;;;;3.56;100.00;95668.66;7399931;19;20966;-91
2023/10/23 01:28:25;;;;;;;7.60;3.87;;;;;;;2.41;100.00;95509.91;7400105;19;20475;-91
2023/10/23 01:30:54;;;;;;;5.57;3.83;;;;;;;2.14;100.00;95452.59;7401799;19;20914;-91
2023/10/23 01:33:25;;;;;;;4.53;3.10;;;;;;;2.74;100.00;95554.84;7399893;19;20973;-91
2023/10/23 01:36:01;;;;;;;5.43;2.97;;;;;;;2.58;100.00;95535.38;7402023;19;20421;-91
2023/10/23 01:38:30;;;;;;;5.30;3.90;;;;;;;3.21;100.00;95657.22;7401945;19;20412;-91
2023/10/23 01:41:29;;;;;;;4.20;3.17;;;;;;;2.89;100.00;95645.84;7402636;19;20389;-91
2023/10/23 01:44:27;;;;;;;6.70;3.50;;;;;;;3.97;100.00;95807.06;7402291;19;20408;-91
2023/10/23 01:47:38;;;;;;;4.40;3.63;;;;;;;1.46;100.00;95439.34;7400889;19;20405;-92
2023/10/23 01:51:09;;;;;;;4.47;3.40;;;;;;;4.00;100.00;95824.75;7402529;19;20384;-91
2023/10/23 01:54:08;;;;;;;2.90;2.70;;;;;;;2.50;100.00;95590.84;7401465;19;20373;-91
2023/10/23 02:00:49;;;;;;;;;;;;;;;;;;;;;
2023/10/23 02:03:29;;;;;;;2.43;2.23;;;;;;;2.07;100.00;95546.84;7404957;19;20460;-92
2023/10/23 02:11:20;;;;;;;4.50;2.60;;;;;;;1.38;100.00;95455.66;7399669;19;20873;-91
2023/10/23 02:14:22;;;;;;;6.43;2.20;;;;;;;2.52;100.00;95636.44;7396394;19;20418;-91
2023/10/23 02:17:08;;;;;;;2.80;2.60;;;;;;;1.03;100.00;95428.44;7397508;19;20393;-91
2023/10/23 02:20:01;;;;;;;1.90;1.70;;;;;;;3.14;100.00;95766.50;7394340;19;20478;-91
2023/10/23 02:22:35;;;;;;;3.13;1.83;;;;;;;2.45;100.00;95645.72;7397994;19;20369;-90
2023/10/23 02:25:06;;;;;;;2.83;1.90;;;;;;;1.28;100.00;95486.31;7397969;19;20946;-90
2023/10/23 02:27:40;;;;;;;2.60;1.83;;;;;;;2.52;100.00;95646.09;7397585;19;20384;-90
2023/10/23 02:30:19;;;;;;;5.17;2.10;;;;;;;3.06;100.00;95741.06;7395573;19;20418;-90
2023/10/23 02:32:48;;;;;;;2.50;2.30;;;;;;;1.11;100.00;95448.59;7399397;19;20389;-90
2023/10/23 02:35:22;;;;;;;3.13;2.40;;;;;;;2.24;100.00;95647.94;7412913;19;20376;-91
2023/10/23 02:38:04;;;;;;;3.33;2.13;;;;;;;2.88;100.00;95805.38;7421367;19;20380;-90
2023/10/23 02:40:31;;;;;;;3.20;1.90;;;;;;;2.03;100.00;95653.53;7409329;19;20450;-90
2023/10/23 02:42:58;;;;;;;2.87;2.50;;;;;;;1.26;100.00;95530.09;7400703;19;20768;-90
2023/10/23 02:45:26;;;;;;;4.80;4.00;;;;;;;1.97;100.00;95640.88;7399189;19;20376;-90
2023/10/23 03:56:17;;;;;;;3.03;2.80;;;;;;;2.00;100.00;95814.94;7398092;19;20819;-90
2023/10/23 03:58:44;;;;;;;3.53;3.00;;;;;;;0.39;100.00;95580.00;7397244;19;20424;-90
2023/10/23 04:01:12;;;;;;;6.20;4.37;;;;;;;1.13;100.00;95682.56;7400757;19;20381;-90
2023/10/23 04:03:39;;;;;;;3.83;3.30;;;;;;;0.73;100.00;95629.25;7396134;19;20368;-90
2023/10/23 04:06:07;;;;;;;3.47;2.70;;;;;;;1.33;100.00;95660.66;7397034;19;20392;-90
2023/10/23 04:08:34;;;;;;;3.57;2.93;;;;;;;1.99;100.00;95743.00;7395734;19;20412;-90
2023/10/23 04:11:01;;;;;;;18.13;11.00;;;;;;;0.03;100.00;95463.53;7401134;19;20369;-90
2023/10/23 04:13:28;;;;;;;18.70;11.67;;;;;;;1.80;100.00;95721.44;7429360;19;20400;-92
2023/10/23 04:16:00;;;;;;;14.63;11.17;;;;;;;2.22;100.00;95788.28;7428419;19;20389;-91
2023/10/23 04:18:28;;;;;;;9.40;6.27;;;;;;;2.38;100.00;95808.59;7400911;19;20428;-90
2023/10/23 04:21:04;;;;;;;9.00;8.10;;;;;;;2.37;100.00;95798.44;7399882;19;20444;-90
2023/10/23 04:23:32;;;;;;;10.20;5.83;;;;;;;1.22;100.00;95669.69;7395287;19;20413;-90
2023/10/23 04:25:59;;;;;;;6.93;5.20;;;;;;;1.10;100.00;95652.69;7397724;19;20384;-90
2023/10/23 04:28:26;;;;;;;5.67;5.00;;;;;;;1.40;100.00;95736.59;7395084;19;20444;-90
2023/10/23 04:30:55;;;;;;;5.57;4.67;;;;;;;1.21;100.00;95702.78;7399804;19;20978;-90
2023/10/23 04:33:23;;;;;;;12.90;5.30;;;;;;;1.76;100.00;95783.78;7431070;19;20385;-91
2023/10/23 04:35:51;;;;;;;9.10;4.60;;;;;;;0.87;100.00;95649.06;7418373;19;20408;-89
2023/10/23 04:38:19;;;;;;;9.53;4.27;;;;;;;0.87;100.00;95651.69;7393773;19;20415;-90
2023/10/23 04:40:46;;;;;;;6.57;4.57;;;;;;;1.86;100.00;95788.81;7395196;19;20742;-90
2023/10/23 04:43:13;;;;;;;7.40;4.70;;;;;;;0.81;100.00;95623.44;7393081;19;20369;-90
2023/10/23 04:45:40;;;;;;;6.30;4.80;;;;;;;-0.05;100.00;95490.91;7396515;19;20469;-89
2023/10/23 04:48:08;;;;;;;6.53;4.00;;;;;;;1.83;100.00;95796.44;7398424;19;20397;-89
2023/10/23 04:50:38;;;;;;;6.10;4.03;;;;;;;1.76;100.00;95804.63;7396533;19;20391;-89
2023/10/23 04:53:06;;;;;;;5.00;3.60;;;;;;;0.61;100.00;95688.69;7399387;19;20432;-90
2023/10/23 04:55:38;;;;;;;7.93;4.37;;;;;;;0.61;100.00;95683.50;7396011;19;20717;-90
2023/10/23 04:58:06;;;;;;;5.57;3.73;;;;;;;1.44;100.00;95813.09;7397516;19;20403;-90
2023/10/23 05:00:35;;;;;;;6.57;3.83;;;;;;;-0.49;100.00;95513.75;7394075;19;20340;-90
2023/10/23 05:03:03;;;;;;;5.77;3.40;;;;;;;0.65;100.00;95661.06;7396049;19;20393;-90
2023/10/23 05:05:31;;;;;;;5.53;4.00;;;;;;;-0.09;100.00;95585.25;7395609;19;20396;-90
2023/10/23 05:07:59;;;;;;;3.90;2.70;;;;;;;1.84;100.00;95837.84;7398840;19;20730;-90
2023/10/23 05:10:26;;;;;;;3.50;3.00;;;;;;;1.98;100.00;95854.31;7395939;19;20385;-90
2023/10/23 05:12:53;;;;;;;4.70;3.00;;;;;;;1.43;100.00;95770.66;7400067;19;20392;-90
2023/10/23 05:15:21;;;;;;;8.20;6.20;;;;;;;0.32;100.00;95640.16;7397665;19;20441;-90
2023/10/23 05:17:48;;;;;;;10.30;5.10;;;;;;;1.47;100.00;95804.75;7398039;19;20365;-90
2023/10/23 05:20:16;;;;;;;12.77;10.67;;;;;;;0.49;100.00;95683.88;7399914;19;20416;-90
2023/10/23 05:22:47;;;;;;;36.00;24.03;;;;;;;1.17;100.00;95795.47;7409999;19;20397;-93
2023/10/23 05:25:14;;;;;;;7.90;7.10;;;;;;;-0.18;100.00;95595.47;7393438;19;20920;-90
2023/10/23 05:27:41;;;;;;;5.93;4.40;;;;;;;1.36;100.00;95811.16;7394470;19;20389;-90
2023/10/23 05:30:08;;;;;;;4.37;3.27;;;;;;;1.30;100.00;95786.22;7395494;19;20914;-90
2023/10/23 05:32:36;;;;;;;4.90;3.97;;;;;;;1.42;100.00;95820.44;7394362;19;20381;-90
2023/10/23 05:35:03;;;;;;;6.40;4.13;;;;;;;0.99;100.00;95757.97;7393401;19;20381;-90
2023/10/23 05:37:37;;;;;;;4.50;3.77;;;;;;;0.07;100.00;95609.25;7394982;19;20392;-90
2023/10/23 05:40:05;;;;;;;4.40;3.93;;;;;;;-0.26;100.00;95569.34;7391551;19;20459;-90
2023/10/23 05:42:32;;;;;;;6.70;4.93;;;;;;;-0.32;100.00;95571.19;7393083;19;20456;-90
2023/10/23 05:45:02;;;;;;;5.57;4.43;;;;;;;1.16;100.00;95810.31;7391982;19;20395;-90
2023/10/23 05:47:29;;;;;;;6.83;3.93;;;;;;;0.52;100.00;95715.31;7395133;19;20371;-90
2023/10/23 05:49:57;;;;;;;3.37;3.17;;;;;;;-0.09;100.00;95655.38;7395431;19;20432;-90
2023/10/23 05:52:24;;;;;;;5.17;3.40;;;;;;;-1.56;100.00;95499.09;7410013;19;20387;-90
2023/10/23 05:54:51;;;;;;;4.97;4.50;;;;;;;1.15;100.00;95873.09;7405816;19;20397;-90
2023/10/23 05:57:18;;;;;;;6.53;4.00;;;;;;;0.45;100.00;95756.47;7403216;19;20401;-90
2023/10/23 05:59:45;;;;;;;8.13;4.80;;;;;;;0.67;100.00;95817.63;7398936;19;20439;-90
2023/10/23 06:02:12;;;;;;;6.40;3.87;;;;;;;0.24;100.00;95726.50;7400175;19;20364;-90
2023/10/23 06:04:44;;;;;;;10.80;8.00;;;;;;;0.50;100.00;95769.41;7400608;19;20376;-90
2023/10/23 06:07:12;;;;;;;13.40;11.40;;;;;;;-0.67;100.00;95606.03;7400558;19;20733;-90
2023/10/23 06:09:39;;;;;;;9.73;7.50;;;;;;;-0.47;100.00;95654.44;7397953;19;20412;-90
2023/10/23 06:12:09;;;;;;;6.43;5.83;;;;;;;-0.53;100.00;95634.75;7402865;19;20380;-90
2023/10/23 06:14:36;;;;;;;5.60;4.43;;;;;;;0.92;100.00;95829.59;7399893;19;20402;-90
2023/10/23 06:17:03;;;;;;;5.77;5.00;;;;;;;0.08;100.00;95701.72;7402836;19;20946;-90
2023/10/23 06:19:31;;;;;;;6.27;4.60;;;;;;;1.02;100.00;95837.31;7398611;19;20428;-90
2023/10/23 06:21:59;;;;;;;4.10;3.70;;;;;;;1.47;100.00;95883.66;7403424;19;20829;-90
2023/10/23 06:24:27;;;;;;;7.37;3.90;;;;;;;1.27;100.00;95855.25;7403017;19;20377;-90
2023/10/23 06:26:54;;;;;;;5.30;4.10;;;;;;;0.97;100.00;95821.75;7399315;19;20373;-90
2023/10/23 06:29:21;;;;;;;7.50;4.10;;;;;;;1.33;100.00;95880.16;7400630;19;20432;-90
2023/10/23 06:31:48;;;;;;;9.33;3.87;;;;;;;1.56;100.00;95899.44;7404025;19;20368;-89
2023/10/23 06:34:15;;;;;;;15.40;7.00;;;;;;;1.02;100.00;95845.13;7400211;19;20384;-90
2023/10/23 06:36:42;;;;;;;6.20;4.13;;;;;;;0.65;100.00;95780.72;7403902;19;20918;-90
2023/10/23 06:39:10;;;;;;;7.50;4.23;;;;;;;0.96;100.00;95800.16;7399399;19;20449;-90
2023/10/23 06:41:37;;;;;;;12.23;4.93;;;;;;;0.76;100.00;95776.97;7402679;19;20389;-90
2023/10/23 06:44:04;;;;;;;17.80;6.10;;;;;;;0.71;100.00;95751.00;7398210;19;20373;-90
2023/10/23 06:46:31;;;;;;;8.27;4.63;;;;;;;0.70;100.00;95733.84;7398745;19;20377;-90
2023/10/23 06:48:58;;;;;;;14.67;5.20;;;;;;;1.02;100.00;95793.84;7397842;19;20401;-90
2023/10/23 06:51:25;;;;;;;7.90;6.00;;;;;;;-0.65;100.00;95536.50;7397568;19;20389;-90
2023/10/23 06:53:53;;;;;;;10.10;5.60;;;;;;;-0.46;100.00;95565.09;7398655;19;20412;-90
2023/10/23 06:56:20;;;;;;;8.57;5.27;;;;;;;0.80;100.00;95721.50;7398071;19;20381;-90
2023/10/23 06:58:47;;;;;;;12.90;7.10;;;;;;;1.80;100.00;95854.34;7397346;19;20765;-90
2023/10/23 07:01:14;;;;;;;11.30;5.90;;;;;;;1.04;100.00;95734.47;7402369;19;20394;-90
2023/10/23 07:03:45;;;;;;;7.60;5.37;;;;;;;-0.11;100.00;95569.94;7397853;19;20380;-90
2023/10/23 07:06:12;;;;;;;9.60;6.50;;;;;;;1.85;100.00;95838.63;7395934;19;20918;-90
2023/10/23 07:08:39;;;;;;;11.63;6.50;;;;;;;1.90;100.00;95852.38;7399611;19;20412;-90
2023/10/23 07:11:18;;;;;;;11.23;6.40;;;;;;;1.58;100.00;95790.53;7409401;19;20400;-92
2023/10/23 07:13:45;;;;;;;12.70;7.83;;;;;;;1.83;100.00;95831.09;7430720;19;20377;-92
2023/10/23 07:16:12;;;;;;;20.70;10.87;;;;;;;1.52;100.00;95765.59;7419316;19;20400;-91
2023/10/23 07:18:42;;;;;;;21.43;13.13;;;;;;;1.50;100.00;95752.09;7429247;19;20425;-92
2023/10/23 07:21:10;;;;;;;24.30;13.30;;;;;;;0.84;100.00;95654.06;7422611;19;20384;-91
2023/10/23 07:26:44;;;;;;;71.73;50.13;;;;;;;1.14;100.00;95635.44;7429557;19;20381;-91
2023/10/23 07:29:11;;;;;;;26.00;17.17;;;;;;;2.00;100.00;95768.00;7429497;19;20417;-90
2023/10/23 07:31:38;;;;;;;15.50;9.83;;;;;;;1.72;100.00;95707.97;7408719;19;20385;-90
2023/10/23 07:34:09;;;;;;;15.27;12.10;;;;;;;0.58;100.00;95536.59;7399943;19;20982;-91
2023/10/23 07:36:38;;;;;;;16.90;9.60;;;;;;;1.92;100.00;95722.53;7400933;19;20416;-91
2023/10/23 07:39:07;;;;;;;11.00;6.53;;;;;;;1.32;100.00;95638.28;7398283;19;20499;-90
2023/10/23 07:41:34;;;;;;;7.20;5.30;;;;;;;1.84;100.00;95688.53;7400992;19;20913;-90
2023/10/23 07:44:07;;;;;;;10.60;6.57;;;;;;;2.26;100.00;95745.69;7399570;19;20388;-90
2023/10/23 07:46:34;;;;;;;11.07;6.60;;;;;;;1.51;100.00;95594.78;7396947;19;20365;-90
2023/10/23 07:49:01;;;;;;;7.07;6.13;;;;;;;2.86;100.00;95773.59;7396091;19;20415;-90
2023/10/23 07:51:29;;;;;;;11.60;6.63;;;;;;;3.68;100.00;95890.31;7402680;19;20401;-91
2023/10/23 07:53:56;;;;;;;12.00;6.70;;;;;;;3.34;100.00;95852.31;7402337;19;20396;-90
2023/10/23 07:56:23;;;;;;;15.50;10.03;;;;;;;1.44;100.00;95547.47;7398386;19;20388;-90
2023/10/23 07:58:53;;;;;;;10.83;8.63;;;;;;;1.49;100.00;95560.44;7399858;19;20436;-90
2023/10/23 08:01:20;;;;;;;10.87;8.37;;;;;;;2.45;100.00;95716.94;7400705;19;20806;-90
2023/10/23 08:03:47;;;;;;;10.10;7.30;;;;;;;2.27;100.00;95676.03;7399223;19;20782;-90
2023/10/23 08:06:15;;;;;;;7.83;6.87;;;;;;;2.47;100.00;95680.13;7400095;19;20397;-90
2023/10/23 08:08:45;;;;;;;11.00;7.17;;;;;;;3.39;100.00;95799.94;7397687;19;20445;-90
2023/10/23 08:11:13;;;;;;;9.67;7.40;;;;;;;1.94;100.00;95581.50;7400470;19;20385;-90
2023/10/23 08:13:40;;;;;;;4.90;4.50;;;;;;;2.62;100.00;95664.16;7397895;19;20734;-90
2023/10/23 08:16:07;;;;;;;7.93;5.37;;;;;;;2.40;100.00;95630.94;7400009;19;20380;-90
2023/10/23 08:21:40;;;;;;;10.13;5.33;;;;;;;3.16;100.00;95701.69;7399225;19;20383;-90
2023/10/23 08:24:08;;;;;;;5.47;4.83;;;;;;;3.04;100.00;95678.69;7396634;19;20389;-90
2023/10/23 08:26:35;;;;;;;6.30;5.03;;;;;;;3.89;100.00;95763.31;7397505;19;20365;-90
2023/10/23 08:29:02;;;;;;;4.67;4.27;;;;;;;3.37;100.00;95674.06;7396157;19;20408;-90
2023/10/23 08:31:31;;;;;;;6.23;4.93;;;;;;;2.62;100.00;95551.97;7400853;19;20906;-91
2023/10/23 08:34:01;;;;;;;7.27;5.00;;;;;;;4.12;100.00;95723.00;7406724;19;20861;-90
2023/10/23 08:36:28;;;;;;;8.80;4.50;;;;;;;4.43;100.00;95740.56;7412771;19;20393;-89
2023/10/23 08:38:56;;;;;;;4.60;3.60;;;;;;;4.86;100.00;95793.13;7408326;19;20424;-90
2023/10/23 08:41:25;;;;;;;8.07;4.40;;;;;;;3.83;100.00;95578.88;7399597;19;20385;-90
2023/10/23 08:43:54;;;;;;;10.17;5.77;;;;;;;4.50;100.00;95665.00;7397574;19;20377;-90
2023/10/23 08:46:31;;;;;;;4.67;4.17;;;;;;;5.00;100.00;95728.28;7400209;19;20385;-89
2023/10/23 08:49:06;;;;;;;9.57;5.33;;;;;;;5.67;100.00;95799.78;7396678;19;20434;-90
2023/10/23 08:51:38;;;;;;;6.13;3.43;;;;;;;3.97;100.00;95534.31;7399271;19;20419;-90
2023/10/23 08:54:06;;;;;;;7.80;4.23;;;;;;;5.63;100.00;95771.56;7396998;19;20395;-90
2023/10/23 08:56:41;;;;;;;5.13;3.73;;;;;;;5.36;100.00;95716.78;7394660;19;20377;-90
2023/10/23 08:59:15;;;;;;;11.73;4.47;;;;;;;5.26;100.00;95694.28;7395770;19;20419;-90
2023/10/23 09:01:42;;;;;;;11.17;5.87;;;;;;;5.81;100.00;95751.34;7396955;19;20376;-90
2023/10/23 09:04:10;;;;;;;4.23;3.90;;;;;;;5.69;100.00;95708.47;7397292;19;20409;-91
2023/10/23 09:06:39;;;;;;;5.87;3.87;;;;;;;6.78;100.00;95869.84;7422942;19;20414;-90
2023/10/23 09:09:06;;;;;;;7.80;3.13;;;;;;;6.02;100.00;95709.53;7394299;19;20428;-90
2023/10/23 09:11:43;;;;;;;3.67;2.63;;;;;;;6.46;100.00;95776.59;7395089;19;20388;-90
2023/10/23 09:14:28;;;;;;;14.90;4.50;;;;;;;5.57;100.00;95620.69;7393995;19;20970;-90
2023/10/23 09:16:59;;;;;;;8.47;4.63;;;;;;;5.57;100.00;95591.09;7397013;19;20403;-89
2023/10/23 09:19:27;;;;;;;10.10;5.73;;;;;;;7.18;100.00;95795.97;7393830;19;20942;-90
2023/10/23 09:21:58;;;;;;;5.50;3.70;;;;;;;7.20;100.00;95758.84;7396200;19;20384;-90
2023/10/23 09:24:26;;;;;;;4.87;4.10;;;;;;;7.55;100.00;95804.88;7395981;19;20379;-90
2023/10/23 09:26:53;;;;;;;7.37;4.10;;;;;;;6.49;100.00;95630.78;7397719;19;20930;-90
2023/10/23 09:29:24;;;;;;;7.13;2.83;;;;;;;7.18;100.00;95714.47;7397980;19;20424;-90
2023/10/23 09:31:53;;;;;;;6.77;3.20;;;;;;;7.13;100.00;95711.25;7419697;19;20405;-89
2023/10/23 09:34:21;;;;;;;4.30;3.17;;;;;;;7.89;100.00;95805.75;7419648;19;20401;-90
2023/10/23 09:36:52;;;;;;;5.07;3.10;;;;;;;7.34;100.00;95698.91;7428356;19;20376;-90
2023/10/23 09:39:24;;;;;;;4.87;3.40;;;;;;;7.47;100.00;95715.50;7431020;19;20408;-90
2023/10/23 09:41:52;;;;;;;6.53;2.90;;;;;;;8.05;100.00;95787.50;7427300;19;20388;-90
2023/10/23 09:44:20;;;;;;;6.30;2.83;;;;;;;8.07;100.00;95772.94;7415038;19;20746;-90
2023/10/23 09:46:47;;;;;;;4.60;3.00;;;;;;;7.92;100.00;95732.19;7401227;19;20428;-90
2023/10/23 09:49:16;;;;;;;5.60;4.23;;;;;;;8.48;100.00;95806.34;7401406;19;20420;-90
2023/10/23 09:51:48;;;;;;;4.23;2.90;;;;;;;8.05;100.00;95745.41;7401916;19;20376;-90
2023/10/23 09:54:19;;;;;;;6.50;3.23;;;;;;;8.67;100.00;95797.16;7400454;19;20414;-91
2023/10/23 09:56:52;;;;;;;7.67;3.00;;;;;;;8.78;100.00;95812.22;7402480;19;20385;-91
2023/10/23 09:59:25;;;;;;;6.67;2.83;;;;;;;7.97;100.00;95660.91;7398676;19;20500;-91
2023/10/23 10:01:57;;;;;;;3.93;2.40;;;;;;;8.22;100.00;95667.00;7400626;19;20448;-91
2023/10/23 10:04:29;;;;;;;3.03;1.73;;;;;;;7.51;100.00;95561.25;7400945;19;20389;-91
2023/10/23 10:07:11;;;;;;;2.00;1.53;;;;;;;8.66;100.00;95716.56;7402762;19;20389;-91
2023/10/23 10:09:40;;;;;;;3.50;1.87;;;;;;;8.20;100.00;95616.53;7399295;19;20468;-91
2023/10/23 10:12:08;;;;;;;3.70;2.63;;;;;;;9.35;100.00;95779.75;7401483;19;20380;-91
2023/10/23 10:14:36;;;;;;;7.73;3.00;;;;;;;9.15;100.00;95749.00;7403088;19;20385;-91
2023/10/23 10:17:04;;;;;;;4.73;2.50;;;;;;;9.84;100.00;95803.44;7406258;19;20401;-91
2023/10/23 10:19:33;;;;;;;4.07;2.33;;;;;;;8.17;100.00;95543.47;7419427;19;20421;-91
2023/10/23 10:22:37;;;;;;;5.90;2.70;;;;;;;8.95;100.00;95658.38;7433568;19;20397;-91
2023/10/23 10:25:06;;;;;;;3.73;2.37;;;;;;;8.61;100.00;95599.00;7423525;19;20935;-92
2023/10/23 10:27:33;;;;;;;3.90;2.60;;;;;;;8.88;100.00;95608.84;7401629;19;20456;-92
2023/10/23 10:30:04;;;;;;;8.13;2.40;;;;;;;8.94;100.00;95627.81;7397196;19;20420;-91
2023/10/23 10:32:35;;;;;;;4.60;2.30;;;;;;;8.99;100.00;95618.94;7398961;19;20372;-91
2023/10/23 10:35:28;;;;;;;7.37;1.90;;;;;;;9.03;100.00;95581.00;7399663;19;20377;-92
2023/10/23 10:38:12;;;;;;;6.43;2.20;;;;;;;10.26;100.00;95716.69;7423591;19;20368;-92
2023/10/23 10:41:03;;;;;;;3.57;2.20;;;;;;;10.94;100.00;95822.25;7428116;19;20369;-92
2023/10/23 10:43:37;;;;;;;3.43;2.17;;;;;;;10.45;100.00;95715.28;7432928;19;20396;-91
2023/10/23 10:46:15;;;;;;;8.00;2.03;;;;;;;10.50;100.00;95696.50;7418100;19;20726;-91
2023/10/23 10:48:44;;;;;;;2.87;1.43;;;;;;;10.48;100.00;95704.78;7398893;19;20400;-92
2023/10/23 10:51:26;;;;;;;4.30;1.70;;;;;;;11.31;100.00;95821.22;7398156;19;20468;-92
2023/10/23 10:54:00;;;;;;;3.40;1.90;;;;;;;10.25;100.00;95685.31;7402133;19;20405;-91
2023/10/23 10:56:27;;;;;;;2.17;1.90;;;;;;;10.85;100.00;95770.66;7402282;19;20376;-91
2023/10/23 10:58:58;;;;;;;3.33;1.67;;;;;;;10.58;100.00;95708.81;7407790;19;20483;-92
2023/10/23 11:01:25;;;;;;;3.40;1.90;;;;;;;10.25;100.00;95659.66;7412449;19;20360;-92
2023/10/23 11:03:52;;;;;;;4.97;1.87;;;;;;;9.96;100.00;95584.22;7416437;19;20404;-91
2023/10/23 11:06:20;;;;;;;2.30;1.83;;;;;;;10.77;100.00;95706.22;7423965;19;20377;-91
2023/10/23 11:08:47;;;;;;;4.90;2.00;;;;;;;11.13;100.00;95746.72;7423309;19;20413;-92
2023/10/23 11:11:16;;;;;;;3.90;2.30;;;;;;;10.77;100.00;95679.78;7412215;19;20392;-91
2023/10/23 11:13:43;;;;;;;2.60;2.07;;;;;;;10.14;100.00;95571.44;7406316;19;20910;-91
2023/10/23 11:16:11;;;;;;;4.33;1.90;;;;;;;11.17;100.00;95716.59;7396935;19;20376;-91
2023/10/23 11:18:38;;;;;;;5.93;2.10;;;;;;;11.58;100.00;95732.97;7396985;19;20896;-92
2023/10/23 11:21:06;;;;;;;3.03;1.80;;;;;;;11.90;100.00;95749.56;7395099;19;21052;-91
2023/10/23 11:23:33;;;;;;;2.23;1.47;;;;;;;10.72;100.00;95603.38;7396953;19;20392;-92
2023/10/23 11:26:00;;;;;;;10.67;2.20;;;;;;;10.92;100.00;95626.09;7397072;19;20376;-92
2023/10/23 11:28:27;;;;;;;3.63;1.93;;;;;;;11.54;100.00;95701.13;7396476;19;20414;-91
2023/10/23 11:30:56;;;;;;;3.03;1.73;;;;;;;11.63;100.00;95708.13;7398502;19;20392;-92
2023/10/23 11:33:24;;;;;;;5.10;2.20;;;;;;;10.28;100.00;95504.97;7399432;19;20376;-92
2023/10/23 11:35:52;;;;;;;2.30;1.47;;;;;;;11.49;100.00;95700.66;7396503;19;20404;-91
2023/10/23 11:38:22;;;;;;;3.60;1.97;;;;;;;11.58;100.00;95718.97;7395344;19;20403;-92
2023/10/23 11:40:53;;;;;;;2.03;1.43;;;;;;;10.28;100.00;95497.84;7396680;19;20381;-92
2023/10/23 11:43:20;;;;;;;2.63;1.80;;;;;;;11.46;100.00;95657.09;7395900;19;20724;-92
2023/10/23 11:45:48;;;;;;;5.07;1.80;;;;;;;11.12;100.00;95612.94;7396078;19;20388;-92
2023/10/23 11:48:15;;;;;;;6.00;2.80;;;;;;;11.22;100.00;95591.97;7396074;19;20730;-92
2023/10/23 11:50:42;;;;;;;4.80;2.10;;;;;;;11.41;100.00;95556.03;7395911;19;20400;-92
2023/10/23 11:53:09;;;;;;;5.10;1.90;;;;;;;12.05;100.00;95658.63;7394642;19;20415;-92
2023/10/23 11:55:37;;;;;;;3.50;1.70;;;;;;;12.26;100.00;95678.66;7395374;19;20917;-92
2023/10/23 11:58:04;;;;;;;4.60;2.43;;;;;;;11.59;100.00;95631.25;7394840;19;20906;-92
2023/10/23 12:00:34;;;;;;;2.80;1.50;;;;;;;11.30;100.00;95579.63;7395006;19;20385;-92
2023/10/23 12:03:01;;;;;;;2.90;1.50;;;;;;;11.17;100.00;95580.88;7395282;19;20737;-92
2023/10/23 12:05:28;;;;;;;4.10;1.33;;;;;;;11.38;100.00;95610.44;7398660;19;20387;-92
2023/10/23 12:07:56;;;;;;;2.83;1.73;;;;;;;10.99;100.00;95556.75;7401012;19;20398;-91
2023/10/23 12:10:25;;;;;;;4.93;1.50;;;;;;;11.42;100.00;95599.91;7397997;19;20415;-92
2023/10/23 12:12:53;;;;;;;2.63;1.70;;;;;;;11.49;100.00;95566.41;7427617;19;20393;-92
2023/10/23 12:15:23;;;;;;;5.60;2.57;;;;;;;12.06;100.00;95636.31;7429065;19;20393;-92
2023/10/23 12:17:53;;;;;;;5.63;1.50;;;;;;;12.17;100.00;95638.38;7397903;19;20360;-92
2023/10/23 12:20:23;;;;;;;2.53;1.60;;;;;;;12.89;100.00;95676.28;7394336;19;20488;-92
2023/10/23 12:22:51;;;;;;;2.17;1.70;;;;;;;11.45;100.00;95441.16;7421186;19;20416;-92
2023/10/23 12:25:19;;;;;;;5.70;1.70;;;;;;;12.98;100.00;95673.38;7399264;19;20377;-91
2023/10/23 12:27:46;;;;;;;2.17;1.40;;;;;;;12.99;100.00;95612.00;7394877;19;20383;-91
2023/10/23 12:30:15;;;;;;;3.40;1.97;;;;;;;13.15;100.00;95590.56;7393108;19;20400;-92
2023/10/23 12:32:52;;;;;;;7.70;2.57;;;;;;;13.60;100.00;95616.16;7396881;19;20397;-91
2023/10/23 12:35:39;;;;;;;4.10;2.13;;;;;;;13.40;100.00;95609.50;7395722;19;20376;-91
2023/10/23 12:38:07;;;;;;;4.33;1.60;;;;;;;13.24;100.00;95672.63;7395035;19;20365;-91
2023/10/23 12:40:34;;;;;;;3.77;2.10;;;;;;;12.55;100.00;95540.13;7395301;19;20412;-91
2023/10/23 12:43:03;;;;;;;6.57;1.60;;;;;;;13.89;100.00;95698.88;7396868;19;20816;-91
2023/10/23 12:45:34;;;;;;;1.40;1.20;;;;;;;13.05;100.00;95593.84;7393771;19;20425;-91
2023/10/23 12:48:05;;;;;;;3.00;1.80;;;;;;;12.09;100.00;95428.16;7397693;19;20407;-91
2023/10/23 12:50:32;;;;;;;5.00;2.00;;;;;;;13.45;100.00;95643.69;7395952;19;20385;-91
2023/10/23 12:52:59;;;;;;;7.67;2.30;;;;;;;13.05;100.00;95601.81;7398659;19;20420;-92
2023/10/23 12:55:26;;;;;;;5.57;2.73;;;;;;;12.03;100.00;95406.53;7397012;19;20799;-92
2023/10/23 12:57:54;;;;;;;1.60;1.50;;;;;;;13.06;100.00;95518.41;7398585;19;20927;-92
2023/10/23 13:00:21;;;;;;;3.60;1.87;;;;;;;13.49;100.00;95619.84;7396422;19;20444;-92
2023/10/23 13:02:48;;;;;;;3.40;2.27;;;;;;;12.84;100.00;95525.38;7400173;19;20389;-92
2023/10/23 13:05:15;;;;;;;2.93;1.40;;;;;;;11.77;100.00;95415.19;7403310;19;20768;-91
2023/10/23 13:07:43;;;;;;;3.23;1.77;;;;;;;12.48;100.00;95571.09;7405188;19;20381;-91
2023/10/23 13:10:10;;;;;;;2.23;1.23;;;;;;;11.91;100.00;95506.63;7398563;19;20400;-92
2023/10/23 13:12:37;;;;;;;3.77;1.60;;;;;;;12.36;100.00;95527.75;7394972;19;20377;-91
2023/10/23 13:15:05;;;;;;;3.67;1.50;;;;;;;12.21;100.00;95539.25;7393397;19;20451;-91
2023/10/23 13:17:35;;;;;;;3.20;1.57;;;;;;;12.91;100.00;95626.28;7395946;19;20377;-91
2023/10/23 13:20:06;;;;;;;5.10;1.53;;;;;;;12.72;100.00;95597.22;7395118;19;20432;-91
2023/10/23 13:22:53;;;;;;;2.57;1.23;;;;;;;12.20;100.00;95489.28;7394800;19;20906;-92